createdAt,value
2018-05-27T00:02:27.012Z,16.20
2018-05-27T00:04:54.626Z,15.73
2018-05-27T00:07:22.172Z,16.17
2018-05-27T00:09:49.732Z,15.47
2018-05-27T00:12:17.268Z,16.20
2018-05-27T00:14:44.828Z,14.97
2018-05-27T00:17:12.355Z,15.07
2018-05-27T00:19:39.908Z,13.40
2018-05-27T00:22:07.439Z,14.67
2018-05-27T00:24:35.008Z,13.37
2018-05-27T00:27:03.299Z,14.63
2018-05-27T00:29:30.856Z,14.43
2018-05-27T00:31:58.394Z,16.23
2018-05-27T00:34:26.723Z,15.23
2018-05-27T00:36:54.257Z,15.47
2018-05-27T00:39:21.809Z,14.83
2018-05-27T00:41:49.339Z,15.20
2018-05-27T00:44:16.884Z,15.30
2018-05-27T00:46:44.415Z,15.33
2018-05-27T00:49:11.977Z,16.23
2018-05-27T00:51:39.510Z,15.97
2018-05-27T00:54:07.066Z,15.03
2018-05-27T00:56:34.602Z,15.87
2018-05-27T00:59:02.919Z,15.10
2018-05-27T01:01:30.451Z,14.83
2018-05-27T01:03:58.004Z,15.63
2018-05-27T01:06:26.312Z,15.27
2018-05-27T01:08:53.865Z,14.87
2018-05-27T01:11:21.390Z,15.27
2018-05-27T01:13:49.726Z,15.80
2018-05-27T01:16:17.261Z,14.47
2018-05-27T01:18:44.820Z,15.20
2018-05-27T01:21:12.380Z,15.13
2018-05-27T01:23:39.928Z,15.73
2018-05-27T01:26:07.476Z,15.33
2018-05-27T01:28:35.027Z,15.77
2018-05-27T01:31:02.556Z,15.87
2018-05-27T01:33:30.118Z,13.90
2018-05-27T01:35:57.644Z,17.07
2018-05-27T01:38:25.188Z,15.20
2018-05-27T01:40:52.721Z,15.47
2018-05-27T01:43:20.273Z,15.87
2018-05-27T01:45:48.579Z,16.53
2018-05-27T01:48:16.135Z,18.70
2018-05-27T01:50:43.663Z,17.77
2018-05-27T01:53:11.976Z,18.27
2018-05-27T01:55:39.508Z,17.37
2018-05-27T01:58:07.071Z,17.63
2018-05-27T02:00:34.599Z,17.77
2018-05-27T02:03:02.135Z,17.80
2018-05-27T02:05:29.694Z,20.17
2018-05-27T02:07:57.226Z,22.97
2018-05-27T02:10:24.779Z,21.60
2018-05-27T02:12:52.310Z,20.60
2018-05-27T02:15:20.645Z,20.70
2018-05-27T02:17:48.172Z,18.63
2018-05-27T02:20:15.728Z,19.67
2018-05-27T02:22:43.252Z,20.20
2018-05-27T02:25:11.568Z,18.57
2018-05-27T02:27:39.104Z,18.30
2018-05-27T02:30:06.652Z,19.57
2018-05-27T02:32:34.196Z,19.17
2018-05-27T02:35:02.521Z,18.23
2018-05-27T02:37:30.056Z,19.50
2018-05-27T02:39:57.616Z,19.90
2018-05-27T02:42:25.143Z,19.77
2018-05-27T02:44:52.746Z,18.60
2018-05-27T02:47:20.294Z,19.60
2018-05-27T02:49:47.843Z,20.20
2018-05-27T02:52:15.379Z,20.40
2018-05-27T02:54:43.583Z,21.70
2018-05-27T02:57:11.972Z,20.83
2018-05-27T02:59:39.528Z,20.77
2018-05-27T03:02:07.057Z,20.23
2018-05-27T03:04:35.376Z,19.07
2018-05-27T03:07:02.911Z,21.53
2018-05-27T03:09:30.469Z,20.73
2018-05-27T03:11:58.005Z,20.77
2018-05-27T03:14:25.556Z,21.53
2018-05-27T03:16:53.092Z,21.37
2018-05-27T03:19:20.667Z,19.97
2018-05-27T03:21:48.980Z,20.20
2018-05-27T03:24:17.372Z,20.47
2018-05-27T03:26:44.900Z,19.57
2018-05-27T03:29:13.221Z,17.77
2018-05-27T03:31:40.769Z,19.17
2018-05-27T03:34:08.323Z,19.10
2018-05-27T03:36:35.853Z,18.23
2018-05-27T03:39:03.759Z,20.43
2018-05-27T03:41:31.287Z,20.27
2018-05-27T03:43:58.853Z,20.17
2018-05-27T03:46:26.379Z,20.97
2018-05-27T03:48:53.925Z,21.23
2018-05-27T03:51:21.464Z,21.20
2018-05-27T03:53:49.008Z,20.33
2018-05-27T03:56:16.539Z,18.70
2018-05-27T03:58:44.093Z,18.13
2018-05-27T04:01:12.396Z,18.83
2018-05-27T04:03:39.925Z,18.60
2018-05-27T04:06:19.392Z,17.93
2018-05-27T04:08:46.944Z,16.97
2018-05-27T04:11:14.492Z,17.93
2018-05-27T04:13:42.019Z,17.53
2018-05-27T04:16:09.575Z,17.53
2018-05-27T04:18:37.118Z,17.20
2018-05-27T04:21:04.675Z,16.03
2018-05-27T04:23:32.199Z,16.30
2018-05-27T04:25:59.751Z,16.30
2018-05-27T04:28:27.956Z,16.27
2018-05-27T04:30:55.519Z,15.67
2018-05-27T04:33:23.075Z,15.07
2018-05-27T04:35:50.632Z,15.43
2018-05-27T04:38:18.155Z,15.43
2018-05-27T04:40:45.704Z,16.07
2018-05-27T04:43:13.227Z,15.47
2018-05-27T04:45:40.780Z,16.17
2018-05-27T04:48:08.313Z,15.33
2018-05-27T04:50:35.864Z,15.32
2018-05-27T04:53:03.395Z,15.07
2018-05-27T04:55:30.956Z,15.30
2018-05-27T04:57:59.287Z,13.70
2018-05-27T05:00:26.851Z,14.52
2018-05-27T05:02:54.379Z,14.60
2018-05-27T05:05:21.941Z,14.40
2018-05-27T05:07:49.472Z,13.95
2018-05-27T05:10:17.815Z,13.88
2018-05-27T05:12:45.343Z,13.73
2018-05-27T05:15:12.893Z,12.80
2018-05-27T05:17:40.448Z,13.05
2018-05-27T05:20:08.039Z,12.88
2018-05-27T05:22:35.579Z,11.82
2018-05-27T05:25:03.116Z,10.77
2018-05-27T05:27:30.668Z,11.60
2018-05-27T05:29:58.700Z,11.48
2018-05-27T05:32:27.030Z,9.82
2018-05-27T05:34:54.563Z,10.27
2018-05-27T05:37:22.115Z,10.60
2018-05-27T05:39:49.652Z,10.02
2018-05-27T05:42:18.050Z,11.07
2018-05-27T05:44:45.578Z,10.68
2018-05-27T05:47:13.132Z,9.85
2018-05-27T05:49:40.669Z,10.80
2018-05-27T05:52:08.212Z,10.25
2018-05-27T05:54:35.743Z,9.45
2018-05-27T05:57:03.300Z,9.57
2018-05-27T05:59:30.835Z,10.02
2018-05-27T06:01:59.155Z,10.15
2018-05-27T06:04:26.687Z,10.57
2018-05-27T06:06:54.231Z,9.70
2018-05-27T06:09:22.535Z,9.90
2018-05-27T06:11:50.088Z,10.77
2018-05-27T06:14:17.640Z,9.18
2018-05-27T06:16:45.276Z,9.55
2018-05-27T06:19:18.163Z,10.25
2018-05-27T06:21:45.812Z,9.55
2018-05-27T06:24:13.400Z,9.50
2018-05-27T06:26:41.000Z,8.80
2018-05-27T06:29:08.552Z,8.43
2018-05-27T06:31:36.173Z,8.82
2018-05-27T06:34:04.526Z,8.32
2018-05-27T06:36:32.132Z,9.05
2018-05-27T06:38:59.741Z,8.13
2018-05-27T06:41:27.376Z,8.52
2018-05-27T06:43:54.976Z,8.50
2018-05-27T06:46:22.580Z,8.15
2018-05-27T06:48:50.205Z,7.95
2018-05-27T06:51:18.562Z,7.85
2018-05-27T06:53:46.125Z,8.15
2018-05-27T06:56:13.688Z,7.50
2018-05-27T06:58:42.036Z,7.43
2018-05-27T07:01:09.658Z,7.43
2018-05-27T07:03:37.240Z,7.47
2018-05-27T07:06:04.806Z,7.18
2018-05-27T07:08:32.357Z,7.05
2018-05-27T07:10:59.944Z,7.32
2018-05-27T07:13:27.497Z,7.40
2018-05-27T07:15:55.106Z,8.00
2018-05-27T07:18:22.681Z,7.40
2018-05-27T07:20:50.283Z,8.48
2018-05-27T07:23:17.956Z,7.70
2018-05-27T07:25:46.345Z,7.25
2018-05-27T07:28:13.967Z,6.87
2018-05-27T07:30:41.521Z,6.20
2018-05-27T07:33:09.128Z,6.90
2018-05-27T07:35:37.445Z,6.72
2018-05-27T07:38:05.088Z,7.05
2018-05-27T07:40:32.661Z,11.65
2018-05-27T07:43:00.228Z,11.38
2018-05-27T07:45:27.792Z,6.18
2018-05-27T07:47:55.365Z,6.57
2018-05-27T07:50:22.977Z,5.93
2018-05-27T07:52:50.539Z,5.97
2018-05-27T07:55:18.067Z,6.68
2018-05-27T07:57:45.620Z,6.10
2018-05-27T08:00:14.392Z,5.78
2018-05-27T08:02:41.976Z,5.37
2018-05-27T08:05:10.271Z,5.50
2018-05-27T08:07:38.056Z,5.65
2018-05-27T08:10:05.583Z,5.37
2018-05-27T08:12:33.914Z,5.32
2018-05-27T08:15:01.453Z,5.12
2018-05-27T08:17:29.017Z,4.60
2018-05-27T08:19:56.584Z,4.82
2018-05-27T08:22:24.888Z,5.47
2018-05-27T08:24:52.411Z,5.15
2018-05-27T08:27:20.731Z,4.90
2018-05-27T08:29:49.395Z,4.55
2018-05-27T08:32:17.764Z,4.28
2018-05-27T08:34:45.295Z,4.65
2018-05-27T08:37:12.839Z,4.65
2018-05-27T08:39:40.373Z,4.18
2018-05-27T08:42:08.697Z,4.62
2018-05-27T08:44:36.239Z,4.07
2018-05-27T08:47:03.787Z,4.62
2018-05-27T08:49:31.315Z,4.57
2018-05-27T08:51:58.867Z,4.78
2018-05-27T08:54:26.388Z,5.65
2018-05-27T08:56:53.955Z,5.47
2018-05-27T08:59:21.479Z,5.32
2018-05-27T09:01:49.024Z,5.60
2018-05-27T09:04:16.559Z,5.25
2018-05-27T09:06:44.104Z,4.90
2018-05-27T09:09:11.687Z,5.20
2018-05-27T09:11:39.217Z,5.95
2018-05-27T09:14:06.766Z,5.20
2018-05-27T09:16:34.313Z,5.75
2018-05-27T09:19:01.860Z,4.87
2018-05-27T09:21:29.432Z,9.68
2018-05-27T09:23:56.972Z,7.37
2018-05-27T09:26:24.501Z,5.50
2018-05-27T09:28:52.828Z,5.18
2018-05-27T09:31:20.368Z,5.03
2018-05-27T09:33:47.916Z,4.87
2018-05-27T09:36:15.452Z,5.47
2018-05-27T09:38:43.769Z,4.97
2018-05-27T09:41:11.352Z,5.07
2018-05-27T09:43:38.896Z,5.53
2018-05-27T09:46:06.423Z,5.30
2018-05-27T09:48:33.976Z,5.82
2018-05-27T09:51:02.294Z,5.97
2018-05-27T09:53:29.839Z,4.90
2018-05-27T09:55:57.371Z,5.20
2018-05-27T09:58:24.945Z,4.75
2018-05-27T10:00:52.497Z,5.53
2018-05-27T10:03:20.040Z,6.37
2018-05-27T10:05:48.352Z,5.95
2018-05-27T10:08:15.892Z,5.30
2018-05-27T10:10:43.428Z,4.70
2018-05-27T10:13:11.743Z,5.05
2018-05-27T10:15:39.281Z,5.18
2018-05-27T10:18:06.840Z,7.20
2018-05-27T10:20:34.464Z,4.85
2018-05-27T10:23:02.011Z,4.53
2018-05-27T10:25:29.567Z,4.68
2018-05-27T10:27:57.118Z,4.82
2018-05-27T10:30:24.653Z,4.90
2018-05-27T10:32:52.217Z,4.43
2018-05-27T10:35:20.550Z,4.80
2018-05-27T10:37:48.866Z,4.68
2018-05-27T10:40:16.600Z,4.75
2018-05-27T10:42:44.193Z,4.53
2018-05-27T10:45:11.716Z,4.10
2018-05-27T10:47:40.040Z,4.40
2018-05-27T10:50:07.581Z,4.65
2018-05-27T10:52:35.116Z,4.12
2018-05-27T10:55:02.668Z,4.25
2018-05-27T10:57:30.199Z,4.55
2018-05-27T10:59:57.808Z,3.80
2018-05-27T11:02:26.068Z,4.05
2018-05-27T11:04:53.615Z,4.55
2018-05-27T11:07:21.905Z,4.00
2018-05-27T11:09:49.450Z,4.35
2018-05-27T11:12:18.504Z,4.22
2018-05-27T11:14:46.063Z,4.03
2018-05-27T11:17:13.602Z,4.10
2018-05-27T11:19:41.295Z,4.30
2018-05-27T11:25:01.926Z,3.87
2018-05-27T11:27:29.420Z,4.28
2018-05-27T11:29:56.986Z,3.80
2018-05-27T11:32:24.519Z,4.00
2018-05-27T11:34:52.071Z,4.12
2018-05-27T11:37:20.372Z,4.35
2018-05-27T11:39:47.939Z,3.95
2018-05-27T11:42:15.463Z,3.90
2018-05-27T11:44:43.760Z,4.20
2018-05-27T11:47:11.321Z,4.45
2018-05-27T11:49:38.871Z,4.00
2018-05-27T11:52:06.427Z,4.12
2018-05-27T11:54:34.571Z,4.35
2018-05-27T11:57:10.735Z,4.20
2018-05-27T11:59:39.080Z,4.00
2018-05-27T12:02:06.653Z,3.87
2018-05-27T12:04:34.188Z,3.92
2018-05-27T12:07:01.739Z,3.50
2018-05-27T12:09:29.900Z,4.07
2018-05-27T12:12:12.338Z,3.70
2018-05-27T12:14:39.859Z,3.97
2018-05-27T12:17:07.408Z,4.12
2018-05-27T12:19:35.305Z,4.12
2018-05-27T12:22:02.860Z,4.10
2018-05-27T12:24:30.728Z,4.40
2018-05-27T12:26:58.676Z,4.53
2018-05-27T12:29:29.704Z,4.40
2018-05-27T12:31:57.561Z,4.37
2018-05-27T12:34:25.306Z,3.60
2018-05-27T12:36:55.378Z,3.50
2018-05-27T12:39:22.888Z,3.55
2018-05-27T12:41:51.431Z,6.47
2018-05-27T12:44:19.752Z,3.80
2018-05-27T12:46:48.699Z,3.80
2018-05-27T12:49:16.647Z,3.78
2018-05-27T12:51:45.021Z,3.50
2018-05-27T12:54:13.687Z,2.90
2018-05-27T12:56:41.267Z,3.50
2018-05-27T12:59:10.007Z,3.03
2018-05-27T13:01:37.691Z,3.40
2018-05-27T13:04:05.648Z,3.25
2018-05-27T13:06:33.964Z,3.37
2018-05-27T13:09:01.495Z,3.25
2018-05-27T13:11:29.059Z,3.40
2018-05-27T13:13:57.056Z,2.50
2018-05-27T13:16:24.720Z,2.80
2018-05-27T13:18:52.192Z,2.42
2018-05-27T13:21:19.735Z,2.55
2018-05-27T13:23:47.680Z,3.00
2018-05-27T13:26:15.227Z,2.92
2018-05-27T13:28:43.048Z,2.60
2018-05-27T13:31:11.088Z,2.70
2018-05-27T13:33:38.620Z,3.05
2018-05-27T13:36:06.340Z,3.10
2018-05-27T13:38:34.215Z,2.70
2018-05-27T13:41:03.267Z,2.58
2018-05-27T13:43:31.629Z,2.60
2018-05-27T13:46:00.184Z,2.60
2018-05-27T13:48:28.488Z,2.58
2018-05-27T13:50:56.043Z,2.67
2018-05-27T13:53:23.592Z,2.60
2018-05-27T13:55:51.119Z,2.90
2018-05-27T13:58:18.687Z,2.95
2018-05-27T14:00:46.989Z,2.75
2018-05-27T14:03:14.533Z,2.90
2018-05-27T14:05:42.823Z,2.75
2018-05-27T14:08:10.368Z,2.80
2018-05-27T14:10:38.655Z,2.50
2018-05-27T14:13:06.195Z,2.58
2018-05-27T14:15:33.712Z,2.70
2018-05-27T14:18:01.302Z,2.92
2018-05-27T14:20:28.827Z,2.75
2018-05-27T14:22:56.411Z,2.95
2018-05-27T14:25:23.915Z,2.60
2018-05-27T14:27:51.451Z,2.92
2018-05-27T14:30:19.736Z,2.83
2018-05-27T14:32:47.283Z,2.95
2018-05-27T14:35:15.575Z,2.60
2018-05-27T14:37:43.118Z,2.60
2018-05-27T14:40:11.408Z,2.50
2018-05-27T14:42:38.959Z,2.60
2018-05-27T14:45:07.248Z,2.30
2018-05-27T14:47:34.791Z,2.08
2018-05-27T14:50:03.075Z,2.47
2018-05-27T14:52:30.619Z,2.47
2018-05-27T14:54:58.912Z,2.28
2018-05-27T14:57:26.463Z,2.53
2018-05-27T14:59:53.994Z,2.20
2018-05-27T15:02:21.536Z,2.20
2018-05-27T15:04:49.062Z,2.65
2018-05-27T15:07:16.607Z,2.40
2018-05-27T15:09:44.135Z,2.05
2018-05-27T15:12:12.499Z,2.55
2018-05-27T15:14:40.019Z,2.60
2018-05-27T15:17:08.431Z,2.50
2018-05-27T15:19:35.948Z,2.40
2018-05-27T15:22:03.499Z,2.40
2018-05-27T15:24:31.031Z,2.30
2018-05-27T15:26:59.362Z,2.35
2018-05-27T15:29:26.891Z,2.40
2018-05-27T15:31:54.448Z,2.58
2018-05-27T15:34:21.991Z,2.40
2018-05-27T15:36:50.471Z,2.47
2018-05-27T15:39:18.787Z,2.60
2018-05-27T15:41:46.328Z,2.53
2018-05-27T15:44:13.854Z,2.55
2018-05-27T15:46:42.139Z,2.92
2018-05-27T15:49:10.453Z,2.62
2018-05-27T15:51:37.976Z,2.37
2018-05-27T15:54:05.532Z,2.45
2018-05-27T15:56:33.819Z,2.80
2018-05-27T15:59:01.370Z,2.60
2018-05-27T16:01:28.904Z,2.33
2018-05-27T16:03:56.448Z,2.47
2018-05-27T16:06:23.971Z,2.72
2018-05-27T16:08:51.516Z,2.85
2018-05-27T16:11:19.042Z,2.03
2018-05-27T16:13:46.593Z,3.03
2018-05-27T16:16:14.119Z,2.30
2018-05-27T16:18:41.687Z,2.90
2018-05-27T16:21:09.221Z,2.58
2018-05-27T16:23:36.776Z,2.40
2018-05-27T16:26:04.320Z,2.92
2018-05-27T16:28:31.885Z,2.80
2018-05-27T16:30:59.859Z,2.45
2018-05-27T16:33:27.405Z,2.50
2018-05-27T16:35:54.946Z,2.78
2018-05-27T16:38:23.268Z,2.28
2018-05-27T16:40:50.800Z,2.35
2018-05-27T16:43:18.345Z,2.20
2018-05-27T16:45:45.875Z,2.40
2018-05-27T16:48:14.196Z,2.00
2018-05-27T16:50:42.488Z,2.65
2018-05-27T16:53:10.683Z,1.90
2018-05-27T16:55:38.207Z,2.35
2018-05-27T16:58:05.752Z,2.30
2018-05-27T17:00:33.271Z,2.42
2018-05-27T17:03:00.820Z,18.75
2018-05-27T17:05:28.348Z,5.22
2018-05-27T17:07:55.924Z,4.55
2018-05-27T17:10:23.503Z,6.28
2018-05-27T17:12:51.087Z,2.80
2018-05-27T17:15:19.376Z,2.83
2018-05-27T17:17:47.836Z,2.60
2018-05-27T17:20:16.132Z,2.53
2018-05-27T17:22:43.678Z,2.62
2018-05-27T17:25:11.971Z,2.55
2018-05-27T17:27:39.529Z,2.08
2018-05-27T17:30:07.060Z,2.90
2018-05-27T17:32:37.067Z,2.42
2018-05-27T17:35:04.657Z,2.85
2018-05-27T17:37:32.180Z,2.67
2018-05-27T17:39:59.709Z,2.60
2018-05-27T17:42:27.259Z,2.40
2018-05-27T17:44:54.775Z,2.80
2018-05-27T17:47:23.105Z,2.65
2018-05-27T17:49:50.631Z,2.08
2018-05-27T17:52:18.155Z,2.53
2018-05-27T17:54:45.711Z,2.30
2018-05-27T17:57:13.235Z,2.50
2018-05-27T17:59:40.776Z,3.05
2018-05-27T18:02:08.291Z,2.90
2018-05-27T18:04:35.827Z,2.75
2018-05-27T18:07:04.140Z,3.00
2018-05-27T18:09:32.450Z,3.25
2018-05-27T18:11:59.980Z,3.83
2018-05-27T18:14:27.525Z,3.40
2018-05-27T18:16:55.820Z,2.92
2018-05-27T18:19:23.363Z,3.58
2018-05-27T18:21:51.452Z,3.50
2018-05-27T18:24:18.992Z,3.40
2018-05-27T18:26:47.283Z,3.30
2018-05-27T18:29:14.823Z,3.30
2018-05-27T18:31:43.145Z,3.00
2018-05-27T18:34:10.675Z,3.40
2018-05-27T18:36:38.200Z,2.83
2018-05-27T18:39:05.738Z,3.12
2018-05-27T18:41:33.259Z,3.55
2018-05-27T18:44:00.814Z,3.33
2018-05-27T18:46:28.348Z,3.25
2018-05-27T18:48:56.692Z,3.62
2018-05-27T18:51:24.222Z,4.97
2018-05-27T18:53:52.536Z,5.28
2018-05-27T18:56:20.060Z,4.70
2018-05-27T18:58:47.912Z,4.50
2018-05-27T19:01:15.435Z,5.43
2018-05-27T19:03:43.739Z,3.92
2018-05-27T19:06:11.271Z,4.10
2018-05-27T19:08:39.575Z,3.75
2018-05-27T19:11:07.095Z,4.50
2018-05-27T19:13:34.642Z,4.18
2018-05-27T19:16:02.169Z,4.60
2018-05-27T19:18:29.715Z,3.92
2018-05-27T19:20:57.249Z,4.37
2018-05-27T19:23:25.567Z,3.85
2018-05-27T19:25:53.090Z,4.53
2018-05-27T19:28:20.628Z,4.60
2018-05-27T19:30:49.399Z,4.30
2018-05-27T19:33:16.942Z,4.85
2018-05-27T19:35:44.466Z,4.53
2018-05-27T19:38:12.013Z,4.15
2018-05-27T19:40:39.549Z,4.12
2018-05-27T19:43:07.101Z,4.65
2018-05-27T19:45:34.632Z,12.15
2018-05-27T19:48:02.211Z,6.12
2018-05-27T19:50:29.731Z,5.32
2018-05-27T19:52:57.279Z,4.72
2018-05-27T19:55:24.859Z,3.90
2018-05-27T19:57:52.432Z,4.75
2018-05-27T20:00:19.984Z,4.78
2018-05-27T20:02:47.516Z,4.72
2018-05-27T20:05:16.415Z,4.72
2018-05-27T20:07:43.951Z,4.70
2018-05-27T20:10:11.515Z,5.35
2018-05-27T20:12:39.044Z,4.45
2018-05-27T20:15:07.410Z,5.00
2018-05-27T20:17:35.420Z,4.40
2018-05-27T20:20:02.973Z,5.30
2018-05-27T20:22:30.512Z,5.18
2018-05-27T20:24:58.836Z,4.95
2018-05-27T20:27:26.364Z,4.45
2018-05-27T20:29:53.931Z,4.37
2018-05-27T20:32:21.455Z,4.57
2018-05-27T20:34:49.778Z,4.10
2018-05-27T20:37:17.306Z,5.12
2018-05-27T20:39:45.619Z,4.62
2018-05-27T20:42:13.154Z,4.72
2018-05-27T20:44:40.707Z,5.05
2018-05-27T20:47:08.244Z,4.53
2018-05-27T20:49:36.560Z,4.45
2018-05-27T20:52:04.083Z,4.37
2018-05-27T20:54:32.394Z,4.20
2018-05-27T20:57:00.675Z,4.40
2018-05-27T20:59:28.221Z,4.22
2018-05-27T21:01:55.752Z,3.65
2018-05-27T21:04:24.056Z,3.90
2018-05-27T21:06:51.586Z,3.40
2018-05-27T21:09:19.137Z,4.00
2018-05-27T21:11:46.660Z,3.95
2018-05-27T21:14:14.203Z,4.22
2018-05-27T21:16:41.724Z,4.03
2018-05-27T21:19:10.037Z,4.03
2018-05-27T21:21:37.560Z,4.03
2018-05-27T21:24:05.111Z,4.87
2018-05-27T21:26:32.634Z,5.22
2018-05-27T21:29:00.176Z,4.80
2018-05-27T21:31:28.411Z,5.22
2018-05-27T21:33:55.952Z,4.60
2018-05-27T21:36:24.236Z,5.03
2018-05-27T21:38:52.552Z,4.15
2018-05-27T21:41:20.092Z,4.50
2018-05-27T21:43:47.635Z,4.75
2018-05-27T21:46:15.172Z,4.60
2018-05-27T21:48:42.716Z,4.30
2018-05-27T21:51:10.245Z,3.92
2018-05-27T21:53:37.763Z,4.15
2018-05-27T21:56:06.073Z,3.95
2018-05-27T21:58:33.599Z,3.97
2018-05-27T22:01:01.144Z,3.58
2018-05-27T22:03:28.675Z,4.00
2018-05-27T22:05:56.223Z,4.20
2018-05-27T22:08:23.776Z,4.47
2018-05-27T22:10:51.323Z,4.25
2018-05-27T22:13:19.636Z,4.32
2018-05-27T22:15:47.171Z,4.15
2018-05-27T22:18:14.695Z,3.92
2018-05-27T22:20:42.239Z,4.57
2018-05-27T22:23:10.523Z,4.32
2018-05-27T22:25:38.307Z,4.20
2018-05-27T22:28:05.831Z,4.70
2018-05-27T22:30:35.091Z,4.47
2018-05-27T22:33:02.616Z,4.25
2018-05-27T22:35:30.176Z,4.28
2018-05-27T22:37:57.703Z,4.00
2018-05-27T22:40:26.012Z,4.35
2018-05-27T22:42:53.540Z,3.90
2018-05-27T22:45:21.848Z,4.32
2018-05-27T22:47:49.375Z,3.80
2018-05-27T22:50:17.692Z,4.37
2018-05-27T22:52:45.216Z,4.18
2018-05-27T22:55:12.771Z,4.22
2018-05-27T22:57:41.055Z,4.28
2018-05-27T23:00:08.671Z,4.62
2018-05-27T23:02:36.195Z,4.82
2018-05-27T23:05:03.740Z,4.60
2018-05-27T23:07:31.300Z,4.82
2018-05-27T23:09:58.831Z,3.87
2018-05-27T23:12:27.128Z,4.37
2018-05-27T23:14:54.689Z,3.78
2018-05-27T23:17:22.211Z,4.82
2018-05-27T23:19:49.761Z,3.80
2018-05-27T23:22:17.304Z,4.10
2018-05-27T23:24:44.851Z,4.78
2018-05-27T23:27:12.368Z,4.35
2018-05-27T23:29:39.912Z,4.40
2018-05-27T23:32:08.195Z,4.90
2018-05-27T23:34:35.738Z,4.50
2018-05-27T23:37:03.267Z,4.30
2018-05-27T23:39:30.804Z,4.57
2018-05-27T23:41:58.349Z,4.30
2018-05-27T23:44:25.883Z,5.17
2018-05-27T23:46:54.209Z,4.15
2018-05-27T23:49:21.726Z,4.72
2018-05-27T23:51:50.011Z,3.95
2018-05-27T23:54:17.540Z,4.85
2018-05-27T23:56:45.078Z,4.62
2018-05-27T23:59:12.599Z,5.03
